createdAt,value
2018-05-18T00:01:25.626Z,33.03
2018-05-18T00:03:53.063Z,27.63
2018-05-18T00:06:21.265Z,34.97
2018-05-18T00:08:48.695Z,29.07
2018-05-18T00:11:16.898Z,32.10
2018-05-18T00:13:44.322Z,34.93
2018-05-18T00:16:12.514Z,30.07
2018-05-18T00:18:39.956Z,25.23
2018-05-18T00:21:08.158Z,26.17
2018-05-18T00:23:35.602Z,29.20
2018-05-18T00:26:03.035Z,27.77
2018-05-18T00:28:31.246Z,29.93
2018-05-18T00:30:58.663Z,34.77
2018-05-18T00:33:26.869Z,26.87
2018-05-18T00:35:54.302Z,30.60
2018-05-18T00:38:22.514Z,36.40
2018-05-18T00:40:49.955Z,30.43
2018-05-18T00:43:17.457Z,30.63
2018-05-18T00:45:45.574Z,24.10
2018-05-18T00:48:13.008Z,31.40
2018-05-18T00:50:41.220Z,24.83
2018-05-18T00:53:08.654Z,29.37
2018-05-18T00:55:41.729Z,30.57
2018-05-18T00:58:09.623Z,26.30
2018-05-18T01:00:36.983Z,27.20
2018-05-18T01:03:04.411Z,26.73
2018-05-18T01:05:32.617Z,28.07
2018-05-18T01:08:00.047Z,31.90
2018-05-18T01:10:27.483Z,29.73
2018-05-18T01:12:55.699Z,32.23
2018-05-18T01:15:23.149Z,29.00
2018-05-18T01:17:50.571Z,36.93
2018-05-18T01:20:18.786Z,29.23
2018-05-18T01:22:46.210Z,29.43
2018-05-18T01:25:14.422Z,30.37
2018-05-18T01:27:41.854Z,28.80
2018-05-18T01:30:09.294Z,40.50
2018-05-18T01:32:37.498Z,28.90
2018-05-18T01:35:04.954Z,34.97
2018-05-18T01:37:33.528Z,33.73
2018-05-18T01:40:00.962Z,30.33
2018-05-18T01:42:29.155Z,32.07
2018-05-18T01:44:56.588Z,38.30
2018-05-18T01:47:24.786Z,33.50
2018-05-18T01:49:52.212Z,42.07
2018-05-18T01:52:20.414Z,33.47
2018-05-18T01:54:47.839Z,29.93
2018-05-18T01:57:16.056Z,50.47
2018-05-18T01:59:43.482Z,48.77
2018-05-18T02:02:11.686Z,43.50
2018-05-18T02:04:39.512Z,38.83
2018-05-18T02:07:07.728Z,66.83
2018-05-18T02:09:35.146Z,38.77
2018-05-18T02:12:03.357Z,34.00
2018-05-18T02:14:31.182Z,34.50
2018-05-18T02:16:59.763Z,32.97
2018-05-18T02:19:27.191Z,36.53
2018-05-18T02:21:54.629Z,44.37
2018-05-18T02:24:22.062Z,33.90
2018-05-18T02:26:49.499Z,29.57
2018-05-18T02:29:17.702Z,40.33
2018-05-18T02:31:45.147Z,37.83
2018-05-18T02:34:12.610Z,30.40
2018-05-18T02:36:40.788Z,27.90
2018-05-18T02:39:09.359Z,39.37
2018-05-18T02:41:36.804Z,41.73
2018-05-18T02:44:05.000Z,45.30
2018-05-18T02:46:32.834Z,52.47
2018-05-18T02:49:00.665Z,36.40
2018-05-18T02:51:28.505Z,82.40
2018-05-18T02:53:56.325Z,60.73
2018-05-18T02:56:24.536Z,61.80
2018-05-18T02:58:52.735Z,33.77
2018-05-18T03:01:20.935Z,87.70
2018-05-18T03:03:48.367Z,89.13
2018-05-18T03:06:15.866Z,52.77
2018-05-18T03:08:44.057Z,27.63
2018-05-18T03:11:11.480Z,32.40
2018-05-18T03:13:39.329Z,34.17
2018-05-18T03:16:06.762Z,58.70
2018-05-18T03:18:34.206Z,71.80
2018-05-18T03:21:02.121Z,39.30
2018-05-18T03:23:30.235Z,51.53
2018-05-18T03:25:57.661Z,38.40
2018-05-18T03:28:25.878Z,41.33
2018-05-18T03:30:53.306Z,44.73
2018-05-18T03:33:20.746Z,35.33
2018-05-18T03:35:48.943Z,35.77
2018-05-18T03:38:17.152Z,56.53
2018-05-18T03:40:44.599Z,49.60
2018-05-18T03:43:12.035Z,54.27
2018-05-18T03:45:39.462Z,47.17
2018-05-18T03:48:07.678Z,46.00
2018-05-18T03:50:35.114Z,41.87
2018-05-18T03:53:02.550Z,46.63
2018-05-18T03:55:30.749Z,22.03
2018-05-18T03:57:58.194Z,28.67
2018-05-18T04:00:26.389Z,23.27
2018-05-18T04:03:05.571Z,25.10
2018-05-18T04:05:44.853Z,28.30
2018-05-18T04:08:24.679Z,25.67
2018-05-18T04:10:52.062Z,25.20
2018-05-18T04:13:19.902Z,22.57
2018-05-18T04:15:47.333Z,22.87
2018-05-18T04:18:15.547Z,38.53
2018-05-18T04:20:42.977Z,61.40
2018-05-18T04:23:10.798Z,34.57
2018-05-18T04:25:39.198Z,66.47
2018-05-18T04:28:07.029Z,87.00
2018-05-18T04:30:34.473Z,94.83
2018-05-18T04:33:01.917Z,40.47
2018-05-18T04:35:29.739Z,35.83
2018-05-18T04:37:57.562Z,25.17
2018-05-18T04:40:25.438Z,15.40
2018-05-18T04:42:52.895Z,23.73
2018-05-18T04:45:20.330Z,26.10
2018-05-18T04:47:48.227Z,20.37
2018-05-18T04:50:15.666Z,25.77
2018-05-18T04:52:44.240Z,20.53
2018-05-18T04:55:11.691Z,20.10
2018-05-18T04:57:39.121Z,84.80
2018-05-18T05:00:07.387Z,112.50
2018-05-18T05:02:35.224Z,78.00
2018-05-18T05:05:03.055Z,67.60
2018-05-18T05:07:30.511Z,59.50
2018-05-18T05:09:57.954Z,44.80
2018-05-18T05:12:25.378Z,52.87
2018-05-18T05:14:53.594Z,52.67
2018-05-18T05:17:21.022Z,48.63
2018-05-18T05:19:49.227Z,54.20
2018-05-18T05:22:16.663Z,51.10
2018-05-18T05:24:44.495Z,20.93
2018-05-18T05:27:11.918Z,32.57
2018-05-18T05:29:39.367Z,17.40
2018-05-18T05:32:06.808Z,16.50
2018-05-18T05:34:34.248Z,14.53
2018-05-18T05:37:02.443Z,18.93
2018-05-18T05:39:29.886Z,16.23
2018-05-18T05:41:57.710Z,15.53
2018-05-18T05:44:25.153Z,17.63
2018-05-18T05:46:52.670Z,16.70
2018-05-18T05:49:20.025Z,26.77
2018-05-18T05:51:48.230Z,33.53
2018-05-18T05:54:15.663Z,19.90
2018-05-18T05:56:43.112Z,18.23
2018-05-18T05:59:11.301Z,20.97
2018-05-18T06:01:38.745Z,16.80
2018-05-18T06:04:06.206Z,21.70
2018-05-18T06:06:33.646Z,14.70
2018-05-18T06:09:01.083Z,19.23
2018-05-18T06:11:28.921Z,16.90
2018-05-18T06:13:56.367Z,19.50
2018-05-18T06:16:24.211Z,16.47
2018-05-18T06:18:51.659Z,17.13
2018-05-18T06:21:19.879Z,16.83
2018-05-18T06:23:47.319Z,14.93
2018-05-18T06:26:14.764Z,31.43
2018-05-18T06:28:42.261Z,16.93
2018-05-18T06:31:09.654Z,14.20
2018-05-18T06:33:37.490Z,20.17
2018-05-18T06:36:05.703Z,16.53
2018-05-18T06:38:33.147Z,18.20
2018-05-18T06:41:00.589Z,17.23
2018-05-18T06:43:28.428Z,22.93
2018-05-18T06:45:56.267Z,23.40
2018-05-18T06:48:24.467Z,29.63
2018-05-18T06:50:52.678Z,26.57
2018-05-18T06:53:20.107Z,20.03
2018-05-18T06:55:47.943Z,20.00
2018-05-18T06:58:15.769Z,26.93
2018-05-18T07:00:44.356Z,30.53
2018-05-18T07:03:11.811Z,20.13
2018-05-18T07:05:39.241Z,25.20
2018-05-18T07:08:07.468Z,24.93
2018-05-18T07:10:35.007Z,24.13
2018-05-18T07:13:02.397Z,23.17
2018-05-18T07:15:29.826Z,27.37
2018-05-18T07:17:57.671Z,26.33
2018-05-18T07:20:25.109Z,28.03
2018-05-18T07:22:52.949Z,24.20
2018-05-18T07:25:20.387Z,31.00
2018-05-18T07:27:47.827Z,22.27
2018-05-18T07:30:15.270Z,24.80
2018-05-18T07:32:42.711Z,28.20
2018-05-18T07:35:10.148Z,27.97
2018-05-18T07:37:38.360Z,26.33
2018-05-18T07:40:05.805Z,23.00
2018-05-18T07:42:33.259Z,30.20
2018-05-18T07:45:00.679Z,27.83
2018-05-18T07:47:28.901Z,23.70
2018-05-18T07:49:56.351Z,30.77
2018-05-18T07:52:23.799Z,20.03
2018-05-18T07:54:51.235Z,29.37
2018-05-18T07:57:19.446Z,26.23
2018-05-18T07:59:46.890Z,25.63
2018-05-18T08:02:14.354Z,26.60
2018-05-18T08:04:41.789Z,29.43
2018-05-18T08:07:09.237Z,28.87
2018-05-18T08:09:36.678Z,26.97
2018-05-18T08:12:04.878Z,29.10
2018-05-18T08:14:32.315Z,33.37
2018-05-18T08:17:00.532Z,28.37
2018-05-18T08:19:27.973Z,29.77
2018-05-18T08:21:55.412Z,27.13
2018-05-18T08:24:22.847Z,36.53
2018-05-18T08:27:03.067Z,28.07
2018-05-18T08:29:35.342Z,32.27
2018-05-18T08:32:03.200Z,30.50
2018-05-18T08:34:30.635Z,31.67
2018-05-18T08:36:58.075Z,24.17
2018-05-18T08:39:25.519Z,26.67
2018-05-18T08:41:53.731Z,34.67
2018-05-18T08:44:21.300Z,29.13
2018-05-18T08:46:49.402Z,28.60
2018-05-18T08:49:16.919Z,31.07
2018-05-18T08:51:45.118Z,26.87
2018-05-18T08:54:12.576Z,35.13
2018-05-18T08:56:40.018Z,29.47
2018-05-18T08:59:07.464Z,28.70
2018-05-18T09:01:34.906Z,27.40
2018-05-18T09:04:02.360Z,21.40
2018-05-18T09:06:29.799Z,30.87
2018-05-18T09:08:57.303Z,28.87
2018-05-18T09:11:25.446Z,32.43
2018-05-18T09:13:52.903Z,24.77
2018-05-18T09:16:21.274Z,23.77
2018-05-18T09:18:49.123Z,33.23
2018-05-18T09:21:16.562Z,29.33
2018-05-18T09:23:44.779Z,28.10
2018-05-18T09:26:12.217Z,28.20
2018-05-18T09:28:39.658Z,28.50
2018-05-18T09:31:07.871Z,32.43
2018-05-18T09:33:35.328Z,33.43
2018-05-18T09:36:02.763Z,25.67
2018-05-18T09:38:30.211Z,24.83
2018-05-18T09:40:57.658Z,25.57
2018-05-18T09:43:25.872Z,26.83
2018-05-18T09:45:53.332Z,25.90
2018-05-18T09:48:21.170Z,27.50
2018-05-18T09:50:49.009Z,27.63
2018-05-18T09:53:17.230Z,28.90
2018-05-18T09:55:45.064Z,27.43
2018-05-18T09:58:13.267Z,29.70
2018-05-18T10:00:41.555Z,21.03
2018-05-18T10:03:08.924Z,25.03
2018-05-18T10:05:36.370Z,20.90
2018-05-18T10:08:03.816Z,20.20
2018-05-18T10:10:31.274Z,25.17
2018-05-18T10:12:58.714Z,22.13
2018-05-18T10:15:26.163Z,26.53
2018-05-18T10:17:53.606Z,25.37
2018-05-18T10:20:21.443Z,24.20
2018-05-18T10:22:48.895Z,24.13
2018-05-18T10:25:22.965Z,19.70
2018-05-18T10:27:50.398Z,21.77
2018-05-18T10:30:17.847Z,20.70
2018-05-18T10:32:45.286Z,27.67
2018-05-18T10:35:13.502Z,22.90
2018-05-18T10:37:40.963Z,23.97
2018-05-18T10:40:08.417Z,22.90
2018-05-18T10:42:35.856Z,24.33
2018-05-18T10:45:03.298Z,23.57
2018-05-18T10:47:31.514Z,18.13
2018-05-18T10:49:58.967Z,27.50
2018-05-18T10:52:26.414Z,22.20
2018-05-18T10:54:53.852Z,23.80
2018-05-18T10:57:21.288Z,25.53
2018-05-18T10:59:49.507Z,25.80
2018-05-18T11:02:16.950Z,20.63
2018-05-18T11:04:44.791Z,20.77
2018-05-18T11:07:12.996Z,18.90
2018-05-18T11:09:40.463Z,26.10
2018-05-18T11:12:07.901Z,20.93
2018-05-18T11:14:35.732Z,23.53
2018-05-18T11:17:03.946Z,21.60
2018-05-18T11:19:31.403Z,24.87
2018-05-18T11:21:58.846Z,23.27
2018-05-18T11:24:27.052Z,22.20
2018-05-18T11:26:54.500Z,24.20
2018-05-18T11:29:21.946Z,22.67
2018-05-18T11:31:50.164Z,18.80
2018-05-18T11:34:17.599Z,22.10
2018-05-18T11:36:45.052Z,21.33
2018-05-18T11:39:12.614Z,20.20
2018-05-18T11:41:39.951Z,23.20
2018-05-18T11:44:08.072Z,22.77
2018-05-18T11:46:36.297Z,25.77
2018-05-18T11:49:03.727Z,17.83
2018-05-18T11:51:31.938Z,21.33
2018-05-18T11:53:59.777Z,21.37
2018-05-18T11:56:27.214Z,22.30
2018-05-18T11:58:54.657Z,21.60
2018-05-18T12:01:23.231Z,25.33
2018-05-18T12:03:50.666Z,19.63
2018-05-18T12:06:18.875Z,22.93
2018-05-18T12:08:46.702Z,25.10
2018-05-18T12:11:14.145Z,21.53
2018-05-18T12:13:41.978Z,17.50
2018-05-18T12:16:09.815Z,21.27
2018-05-18T12:18:37.642Z,24.50
2018-05-18T12:21:05.085Z,21.27
2018-05-18T12:23:32.532Z,26.13
2018-05-18T12:25:59.969Z,24.87
2018-05-18T12:28:27.799Z,20.90
2018-05-18T12:30:55.237Z,21.30
2018-05-18T12:33:22.693Z,25.57
2018-05-18T12:35:50.131Z,24.90
2018-05-18T12:38:17.676Z,21.67
2018-05-18T12:40:45.027Z,21.87
2018-05-18T12:43:12.471Z,23.73
2018-05-18T12:45:40.669Z,13.60
2018-05-18T12:48:08.118Z,22.77
2018-05-18T12:50:35.555Z,20.13
2018-05-18T12:53:03.763Z,20.30
2018-05-18T12:55:31.208Z,20.27
2018-05-18T12:57:58.650Z,21.07
2018-05-18T13:00:26.087Z,19.93
2018-05-18T13:02:54.303Z,17.60
2018-05-18T13:05:21.739Z,21.50
2018-05-18T13:07:49.178Z,21.80
2018-05-18T13:10:17.402Z,19.67
2018-05-18T13:12:45.239Z,20.70
2018-05-18T13:15:12.732Z,21.27
2018-05-18T13:17:40.178Z,18.70
2018-05-18T13:20:07.611Z,18.97
2018-05-18T13:22:35.060Z,17.70
2018-05-18T13:25:02.921Z,16.83
2018-05-18T13:27:31.119Z,22.53
2018-05-18T13:29:58.571Z,26.60
2018-05-18T13:32:26.106Z,22.17
2018-05-18T13:34:53.476Z,22.77
2018-05-18T13:37:20.919Z,22.00
2018-05-18T13:39:48.504Z,16.67
2018-05-18T13:42:15.938Z,19.60
2018-05-18T13:44:43.435Z,19.77
2018-05-18T13:47:11.229Z,19.33
2018-05-18T13:49:38.663Z,17.07
2018-05-18T13:52:06.099Z,18.20
2018-05-18T13:54:33.543Z,15.60
2018-05-18T13:57:02.291Z,22.93
2018-05-18T13:59:30.950Z,15.87
2018-05-18T14:01:59.732Z,19.67
2018-05-18T14:04:28.687Z,19.77
2018-05-18T14:06:56.882Z,16.47
2018-05-18T14:09:24.327Z,21.33
2018-05-18T14:11:51.763Z,18.30
2018-05-18T14:14:19.202Z,19.13
2018-05-18T14:16:47.402Z,19.37
2018-05-18T14:19:15.611Z,16.23
2018-05-18T14:21:43.052Z,15.03
2018-05-18T14:24:10.495Z,15.03
2018-05-18T14:26:38.697Z,15.00
2018-05-18T14:29:06.147Z,16.97
2018-05-18T14:31:33.640Z,15.47
2018-05-18T14:34:01.123Z,18.10
2018-05-18T14:36:28.967Z,22.03
2018-05-18T14:38:57.175Z,18.80
2018-05-18T14:41:25.471Z,17.97
2018-05-18T14:43:53.401Z,13.70
2018-05-18T14:46:20.746Z,14.43
2018-05-18T14:48:48.227Z,18.50
2018-05-18T14:51:16.069Z,15.13
2018-05-18T14:53:44.256Z,20.53
2018-05-18T14:56:12.829Z,14.07
2018-05-18T14:58:40.367Z,17.23
2018-05-18T15:01:08.483Z,17.03
2018-05-18T15:03:37.052Z,13.70
2018-05-18T15:06:04.884Z,16.17
2018-05-18T15:08:33.107Z,12.97
2018-05-18T15:11:00.590Z,17.13
2018-05-18T15:13:28.398Z,16.60
2018-05-18T15:15:56.594Z,21.27
2018-05-18T15:18:24.028Z,21.20
2018-05-18T15:20:51.467Z,16.20
2018-05-18T15:23:19.674Z,13.80
2018-05-18T15:25:47.141Z,12.97
2018-05-18T15:28:14.592Z,15.67
2018-05-18T15:30:43.162Z,17.00
2018-05-18T15:33:10.592Z,17.03
2018-05-18T15:35:38.798Z,17.03
2018-05-18T15:38:06.999Z,13.37
2018-05-18T15:40:34.436Z,21.20
2018-05-18T15:43:01.867Z,13.90
2018-05-18T15:45:29.309Z,16.13
2018-05-18T15:47:57.140Z,10.90
2018-05-18T15:50:24.566Z,12.30
2018-05-18T15:52:52.003Z,15.67
2018-05-18T15:55:19.439Z,14.33
2018-05-18T15:57:47.647Z,12.97
2018-05-18T16:00:15.078Z,12.77
2018-05-18T16:02:43.334Z,14.20
2018-05-18T16:05:10.759Z,14.60
2018-05-18T16:07:38.203Z,23.63
2018-05-18T16:10:05.638Z,13.23
2018-05-18T16:12:33.085Z,13.90
2018-05-18T16:15:00.911Z,13.93
2018-05-18T16:17:28.762Z,13.70
2018-05-18T16:19:56.196Z,14.40
2018-05-18T16:22:23.651Z,10.70
2018-05-18T16:24:51.090Z,16.80
2018-05-18T16:27:18.938Z,8.63
2018-05-18T16:29:47.162Z,11.03
2018-05-18T16:32:14.620Z,13.80
2018-05-18T16:34:42.052Z,11.47
2018-05-18T16:37:09.491Z,15.50
2018-05-18T16:39:36.926Z,15.80
2018-05-18T16:42:05.148Z,19.33
2018-05-18T16:44:32.575Z,15.30
2018-05-18T16:47:00.426Z,14.03
2018-05-18T16:49:28.640Z,19.23
2018-05-18T16:51:56.470Z,12.67
2018-05-18T16:54:24.663Z,15.53
2018-05-18T16:56:52.511Z,13.87
2018-05-18T16:59:20.704Z,10.10
2018-05-18T17:01:48.144Z,19.97
2018-05-18T17:04:15.982Z,15.87
2018-05-18T17:06:43.433Z,14.00
2018-05-18T17:09:10.883Z,13.00
2018-05-18T17:11:38.331Z,18.73
2018-05-18T17:14:07.215Z,44.37
2018-05-18T17:16:35.053Z,55.20
2018-05-18T17:19:02.488Z,18.40
2018-05-18T17:21:30.327Z,91.30
2018-05-18T17:23:57.776Z,19.33
2018-05-18T17:26:25.211Z,18.60
2018-05-18T17:28:53.061Z,19.43
2018-05-18T17:31:20.890Z,19.20
2018-05-18T17:33:49.103Z,12.57
2018-05-18T17:36:16.543Z,15.30
2018-05-18T17:38:43.980Z,20.00
2018-05-18T17:41:12.183Z,14.17
2018-05-18T17:43:39.621Z,13.43
2018-05-18T17:46:07.053Z,22.03
2018-05-18T17:48:34.882Z,16.40
2018-05-18T17:51:02.315Z,15.77
2018-05-18T17:53:29.758Z,17.57
2018-05-18T17:55:57.191Z,20.73
2018-05-18T17:58:25.413Z,12.90
2018-05-18T18:00:53.252Z,19.30
2018-05-18T18:03:20.703Z,17.53
2018-05-18T18:05:48.140Z,18.50
2018-05-18T18:08:15.980Z,23.43
2018-05-18T18:10:43.419Z,14.90
2018-05-18T18:13:10.871Z,17.00
2018-05-18T18:15:38.315Z,21.87
2018-05-18T18:18:06.151Z,15.70
2018-05-18T18:20:34.405Z,17.70
2018-05-18T18:23:02.249Z,14.90
2018-05-18T18:25:30.455Z,17.37
2018-05-18T18:27:58.672Z,21.30
2018-05-18T18:30:26.105Z,22.80
2018-05-18T18:32:53.555Z,40.03
2018-05-18T18:35:21.784Z,18.80
2018-05-18T18:37:49.627Z,18.10
2018-05-18T18:40:18.228Z,25.07
2018-05-18T18:42:45.656Z,25.40
2018-05-18T18:45:13.110Z,19.20
2018-05-18T18:47:40.549Z,22.60
2018-05-18T18:50:07.994Z,25.37
2018-05-18T18:52:36.200Z,18.80
2018-05-18T18:55:04.037Z,24.13
2018-05-18T18:57:32.530Z,17.70
2018-05-18T18:59:59.964Z,22.43
2018-05-18T19:02:28.255Z,26.80
2018-05-18T19:04:56.459Z,19.87
2018-05-18T19:07:23.943Z,16.77
2018-05-18T19:09:52.252Z,20.20
2018-05-18T19:12:20.461Z,21.90
2018-05-18T19:14:47.906Z,25.20
2018-05-18T19:17:16.600Z,25.57
2018-05-18T19:19:44.279Z,20.37
2018-05-18T19:22:13.495Z,19.97
2018-05-18T19:24:41.735Z,23.37
2018-05-18T19:27:09.663Z,25.43
2018-05-18T19:29:37.554Z,28.03
2018-05-18T19:32:04.946Z,22.57
2018-05-18T19:34:32.382Z,15.23
2018-05-18T19:36:59.862Z,15.27
2018-05-18T19:39:27.700Z,21.80
2018-05-18T19:41:56.279Z,22.50
2018-05-18T19:44:23.807Z,21.70
2018-05-18T19:46:51.267Z,15.07
2018-05-18T19:49:19.471Z,19.60
2018-05-18T19:51:46.928Z,25.17
2018-05-18T19:54:14.402Z,26.60
2018-05-18T19:56:41.838Z,21.40
2018-05-18T19:59:09.277Z,28.63
2018-05-18T20:01:36.925Z,19.97
2018-05-18T20:04:05.143Z,20.20
2018-05-18T20:06:32.650Z,19.47
2018-05-18T20:09:00.856Z,17.03
2018-05-18T20:11:28.856Z,22.50
2018-05-18T20:13:56.294Z,24.67
2018-05-18T20:16:23.746Z,24.63
2018-05-18T20:18:51.186Z,21.97
2018-05-18T20:21:19.036Z,21.47
2018-05-18T20:23:46.860Z,28.07
2018-05-18T20:26:14.296Z,26.67
2018-05-18T20:28:41.741Z,27.87
2018-05-18T20:31:09.575Z,22.40
2018-05-18T20:33:37.777Z,27.07
2018-05-18T20:36:05.210Z,29.77
2018-05-18T20:38:32.646Z,26.77
2018-05-18T20:41:00.082Z,29.47
2018-05-18T20:43:28.659Z,27.87
2018-05-18T20:45:56.108Z,28.27
2018-05-18T20:48:23.551Z,27.20
2018-05-18T20:50:50.997Z,20.43
2018-05-18T20:53:19.191Z,17.43
2018-05-18T20:55:46.643Z,24.00
2018-05-18T20:58:14.080Z,18.03
2018-05-18T21:00:41.519Z,14.80
2018-05-18T21:03:08.965Z,18.07
2018-05-18T21:05:37.184Z,21.53
2018-05-18T21:08:04.626Z,20.10
2018-05-18T21:10:32.136Z,24.57
2018-05-18T21:12:59.898Z,20.30
2018-05-18T21:15:27.334Z,23.30
2018-05-18T21:17:54.773Z,21.47
2018-05-18T21:20:22.214Z,24.40
2018-05-18T21:22:50.419Z,18.23
2018-05-18T21:25:17.855Z,22.63
2018-05-18T21:27:45.303Z,23.13
2018-05-18T21:30:13.884Z,19.67
2018-05-18T21:32:41.334Z,23.93
2018-05-18T21:35:08.763Z,22.57
2018-05-18T21:37:36.971Z,24.30
2018-05-18T21:40:04.413Z,19.77
2018-05-18T21:42:31.852Z,21.37
2018-05-18T21:45:00.062Z,19.40
2018-05-18T21:47:27.511Z,20.97
2018-05-18T21:49:56.090Z,26.90
2018-05-18T21:52:23.536Z,18.53
2018-05-18T21:54:50.971Z,22.70
2018-05-18T21:57:19.189Z,17.90
2018-05-18T21:59:46.630Z,23.47
2018-05-18T22:02:14.059Z,26.27
2018-05-18T22:04:42.276Z,17.97
2018-05-18T22:07:09.731Z,19.33
2018-05-18T22:09:37.153Z,25.20
2018-05-18T22:12:04.615Z,19.53
2018-05-18T22:14:32.061Z,23.17
2018-05-18T22:17:00.723Z,25.77
2018-05-18T22:19:28.164Z,20.73
2018-05-18T22:21:55.605Z,18.80
2018-05-18T22:24:23.044Z,28.23
2018-05-18T22:26:50.508Z,24.80
2018-05-18T22:29:17.931Z,25.33
2018-05-18T22:31:45.359Z,23.63
2018-05-18T22:34:12.804Z,21.73
2018-05-18T22:36:40.635Z,24.10
2018-05-18T22:39:08.075Z,25.87
2018-05-18T22:41:35.516Z,22.03
2018-05-18T22:44:02.963Z,29.27
2018-05-18T22:46:31.167Z,23.80
2018-05-18T22:48:58.603Z,24.90
2018-05-18T22:51:26.864Z,26.10
2018-05-18T22:53:55.080Z,19.40
2018-05-18T22:56:22.518Z,30.73
2018-05-18T22:58:49.967Z,24.23
2018-05-18T23:01:17.407Z,25.63
2018-05-18T23:03:44.838Z,25.60
2018-05-18T23:06:12.273Z,23.87
2018-05-18T23:08:39.732Z,27.70
2018-05-18T23:11:07.172Z,22.57
2018-05-18T23:13:34.611Z,26.03
2018-05-18T23:16:02.047Z,28.33
2018-05-18T23:18:30.255Z,31.23
2018-05-18T23:20:57.701Z,24.30
2018-05-18T23:23:25.142Z,22.13
2018-05-18T23:25:52.653Z,27.13
2018-05-18T23:28:20.017Z,25.20
2018-05-18T23:30:47.453Z,23.70
2018-05-18T23:33:14.899Z,23.80
2018-05-18T23:35:42.345Z,24.70
2018-05-18T23:38:09.788Z,26.30
2018-05-18T23:40:37.220Z,22.57
2018-05-18T23:43:05.422Z,22.70
2018-05-18T23:45:32.843Z,27.73
2018-05-18T23:48:00.307Z,24.07
2018-05-18T23:50:28.522Z,29.40
2018-05-18T23:52:55.950Z,23.50
2018-05-18T23:55:23.387Z,24.33
2018-05-18T23:57:51.580Z,26.83
